sensor_id;sensor_type;location;lat;lon;timestamp;temperature;humidity
47757;SHT35;22147;52.388;13.390;2024-01-06T00:01:47;1.51;93.78
47757;SHT35;22147;52.388;13.390;2024-01-06T00:04:17;1.48;93.78
47757;SHT35;22147;52.388;13.390;2024-01-06T00:06:48;1.44;93.80
47757;SHT35;22147;52.388;13.390;2024-01-06T00:09:18;1.50;93.92
47757;SHT35;22147;52.388;13.390;2024-01-06T00:11:48;1.46;93.89
47757;SHT35;22147;52.388;13.390;2024-01-06T00:14:18;1.47;93.89
47757;SHT35;22147;52.388;13.390;2024-01-06T00:16:49;1.48;93.97
47757;SHT35;22147;52.388;13.390;2024-01-06T00:19:17;1.44;93.97
47757;SHT35;22147;52.388;13.390;2024-01-06T00:21:46;1.47;93.97
47757;SHT35;22147;52.388;13.390;2024-01-06T00:24:14;1.46;93.95
47757;SHT35;22147;52.388;13.390;2024-01-06T00:26:42;1.39;93.94
47757;SHT35;22147;52.388;13.390;2024-01-06T00:29:11;1.40;94.00
47757;SHT35;22147;52.388;13.390;2024-01-06T00:31:39;1.39;93.99
47757;SHT35;22147;52.388;13.390;2024-01-06T00:34:08;1.39;94.05
47757;SHT35;22147;52.388;13.390;2024-01-06T00:36:36;1.43;94.14
47757;SHT35;22147;52.388;13.390;2024-01-06T00:39:05;1.42;94.11
47757;SHT35;22147;52.388;13.390;2024-01-06T00:41:33;1.44;94.01
47757;SHT35;22147;52.388;13.390;2024-01-06T00:44:02;1.39;93.92
47757;SHT35;22147;52.388;13.390;2024-01-06T00:46:30;1.37;93.91
47757;SHT35;22147;52.388;13.390;2024-01-06T00:48:58;1.36;93.94
47757;SHT35;22147;52.388;13.390;2024-01-06T00:51:27;1.34;93.96
47757;SHT35;22147;52.388;13.390;2024-01-06T00:53:55;1.39;94.00
47757;SHT35;22147;52.388;13.390;2024-01-06T00:56:24;1.34;94.00
47757;SHT35;22147;52.388;13.390;2024-01-06T00:58:52;1.29;93.99
47757;SHT35;22147;52.388;13.390;2024-01-06T01:01:20;1.30;94.04
47757;SHT35;22147;52.388;13.390;2024-01-06T01:03:49;1.30;94.06
47757;SHT35;22147;52.388;13.390;2024-01-06T01:06:17;1.29;94.10
47757;SHT35;22147;52.388;13.390;2024-01-06T01:08:46;1.32;94.11
47757;SHT35;22147;52.388;13.390;2024-01-06T01:11:14;1.33;94.13
47757;SHT35;22147;52.388;13.390;2024-01-06T01:13:43;1.27;94.05
47757;SHT35;22147;52.388;13.390;2024-01-06T01:16:11;1.29;94.06
47757;SHT35;22147;52.388;13.390;2024-01-06T01:18:40;1.29;94.02
47757;SHT35;22147;52.388;13.390;2024-01-06T01:21:08;1.26;94.00
47757;SHT35;22147;52.388;13.390;2024-01-06T01:23:36;1.26;94.05
47757;SHT35;22147;52.388;13.390;2024-01-06T01:26:05;1.34;94.11
47757;SHT35;22147;52.388;13.390;2024-01-06T01:28:33;1.26;94.06
47757;SHT35;22147;52.388;13.390;2024-01-06T01:31:02;1.29;94.08
47757;SHT35;22147;52.388;13.390;2024-01-06T01:33:30;1.30;94.09
47757;SHT35;22147;52.388;13.390;2024-01-06T01:35:59;1.27;94.06
47757;SHT35;22147;52.388;13.390;2024-01-06T01:38:30;1.24;94.01
47757;SHT35;22147;52.388;13.390;2024-01-06T01:40:58;1.20;94.05
47757;SHT35;22147;52.388;13.390;2024-01-06T01:43:27;1.32;94.05
47757;SHT35;22147;52.388;13.390;2024-01-06T01:45:59;1.27;93.91
47757;SHT35;22147;52.388;13.390;2024-01-06T01:48:30;1.27;93.94
47757;SHT35;22147;52.388;13.390;2024-01-06T01:51:02;1.23;93.90
47757;SHT35;22147;52.388;13.390;2024-01-06T01:53:32;1.30;93.90
47757;SHT35;22147;52.388;13.390;2024-01-06T01:56:03;1.19;93.82
47757;SHT35;22147;52.388;13.390;2024-01-06T01:58:34;1.33;93.85
47757;SHT35;22147;52.388;13.390;2024-01-06T02:01:04;1.22;93.77
47757;SHT35;22147;52.388;13.390;2024-01-06T02:03:35;1.22;93.77
47757;SHT35;22147;52.388;13.390;2024-01-06T02:06:06;1.22;93.64
47757;SHT35;22147;52.388;13.390;2024-01-06T02:08:37;1.23;93.64
47757;SHT35;22147;52.388;13.390;2024-01-06T02:11:08;1.22;93.64
47757;SHT35;22147;52.388;13.390;2024-01-06T02:13:38;1.22;93.66
47757;SHT35;22147;52.388;13.390;2024-01-06T02:16:08;1.22;93.73
47757;SHT35;22147;52.388;13.390;2024-01-06T02:18:39;1.27;93.53
47757;SHT35;22147;52.388;13.390;2024-01-06T02:21:10;1.24;93.38
47757;SHT35;22147;52.388;13.390;2024-01-06T02:23:40;1.26;93.33
47757;SHT35;22147;52.388;13.390;2024-01-06T02:26:11;1.22;93.34
47757;SHT35;22147;52.388;13.390;2024-01-06T02:28:41;1.22;93.27
47757;SHT35;22147;52.388;13.390;2024-01-06T02:31:15;1.23;93.36
47757;SHT35;22147;52.388;13.390;2024-01-06T02:33:45;1.29;93.44
47757;SHT35;22147;52.388;13.390;2024-01-06T02:36:16;1.23;93.35
47757;SHT35;22147;52.388;13.390;2024-01-06T02:38:46;1.19;93.33
47757;SHT35;22147;52.388;13.390;2024-01-06T02:41:16;1.23;93.43
47757;SHT35;22147;52.388;13.390;2024-01-06T02:43:47;1.15;93.24
47757;SHT35;22147;52.388;13.390;2024-01-06T02:46:17;1.12;93.33
47757;SHT35;22147;52.388;13.390;2024-01-06T02:48:47;1.12;93.36
47757;SHT35;22147;52.388;13.390;2024-01-06T02:51:17;1.13;93.49
47757;SHT35;22147;52.388;13.390;2024-01-06T02:53:48;1.16;93.56
47757;SHT35;22147;52.388;13.390;2024-01-06T02:56:18;1.16;93.58
47757;SHT35;22147;52.388;13.390;2024-01-06T02:58:48;1.11;93.50
47757;SHT35;22147;52.388;13.390;2024-01-06T03:01:18;1.12;93.47
47757;SHT35;22147;52.388;13.390;2024-01-06T03:03:45;1.13;93.55
47757;SHT35;22147;52.388;13.390;2024-01-06T03:06:14;1.11;93.53
47757;SHT35;22147;52.388;13.390;2024-01-06T03:08:42;1.17;93.65
47757;SHT35;22147;52.388;13.390;2024-01-06T03:11:11;1.20;93.53
47757;SHT35;22147;52.388;13.390;2024-01-06T03:13:39;1.23;93.39
47757;SHT35;22147;52.388;13.390;2024-01-06T03:16:07;1.19;93.11
47757;SHT35;22147;52.388;13.390;2024-01-06T03:18:36;1.17;93.26
47757;SHT35;22147;52.388;13.390;2024-01-06T03:21:04;1.19;93.13
47757;SHT35;22147;52.388;13.390;2024-01-06T03:23:33;1.13;93.18
47757;SHT35;22147;52.388;13.390;2024-01-06T03:26:06;1.17;93.29
47757;SHT35;22147;52.388;13.390;2024-01-06T03:28:36;1.20;93.34
47757;SHT35;22147;52.388;13.390;2024-01-06T03:31:07;1.13;93.39
47757;SHT35;22147;52.388;13.390;2024-01-06T03:33:37;1.20;93.51
47757;SHT35;22147;52.388;13.390;2024-01-06T03:36:08;1.17;93.25
47757;SHT35;22147;52.388;13.390;2024-01-06T03:38:38;1.22;93.31
47757;SHT35;22147;52.388;13.390;2024-01-06T03:41:08;1.11;93.31
47757;SHT35;22147;52.388;13.390;2024-01-06T03:43:39;1.11;93.40
47757;SHT35;22147;52.388;13.390;2024-01-06T03:46:09;1.09;93.47
47757;SHT35;22147;52.388;13.390;2024-01-06T03:48:39;1.12;93.58
47757;SHT35;22147;52.388;13.390;2024-01-06T03:51:12;1.12;93.65
47757;SHT35;22147;52.388;13.390;2024-01-06T03:53:42;1.11;93.68
47757;SHT35;22147;52.388;13.390;2024-01-06T03:56:14;1.07;93.74
47757;SHT35;22147;52.388;13.390;2024-01-06T03:58:44;1.09;93.80
47757;SHT35;22147;52.388;13.390;2024-01-06T04:01:14;1.07;93.74
47757;SHT35;22147;52.388;13.390;2024-01-06T04:03:44;1.06;93.80
47757;SHT35;22147;52.388;13.390;2024-01-06T04:06:15;1.07;93.81
47757;SHT35;22147;52.388;13.390;2024-01-06T04:08:45;1.09;93.85
47757;SHT35;22147;52.388;13.390;2024-01-06T04:11:16;1.06;93.85
47757;SHT35;22147;52.388;13.390;2024-01-06T04:13:46;1.15;93.90
47757;SHT35;22147;52.388;13.390;2024-01-06T04:16:16;1.09;93.75
47757;SHT35;22147;52.388;13.390;2024-01-06T04:18:47;1.07;93.73
47757;SHT35;22147;52.388;13.390;2024-01-06T04:21:17;1.11;93.82
47757;SHT35;22147;52.388;13.390;2024-01-06T04:23:47;1.07;93.74
47757;SHT35;22147;52.388;13.390;2024-01-06T04:26:18;1.09;93.78
47757;SHT35;22147;52.388;13.390;2024-01-06T04:28:48;1.11;93.75
47757;SHT35;22147;52.388;13.390;2024-01-06T04:31:18;1.09;93.74
47757;SHT35;22147;52.388;13.390;2024-01-06T04:33:48;1.06;93.73
47757;SHT35;22147;52.388;13.390;2024-01-06T04:36:19;1.07;93.76
47757;SHT35;22147;52.388;13.390;2024-01-06T04:38:49;1.03;93.70
47757;SHT35;22147;52.388;13.390;2024-01-06T04:41:20;1.00;93.71
47757;SHT35;22147;52.388;13.390;2024-01-06T04:43:51;1.02;93.76
47757;SHT35;22147;52.388;13.390;2024-01-06T04:46:21;1.02;93.80
47757;SHT35;22147;52.388;13.390;2024-01-06T04:48:49;1.03;93.83
47757;SHT35;22147;52.388;13.390;2024-01-06T04:51:18;1.03;93.83
47757;SHT35;22147;52.388;13.390;2024-01-06T04:53:46;1.06;93.84
47757;SHT35;22147;52.388;13.390;2024-01-06T04:56:14;1.05;93.76
47757;SHT35;22147;52.388;13.390;2024-01-06T04:58:43;1.00;93.68
47757;SHT35;22147;52.388;13.390;2024-01-06T05:01:11;0.96;93.76
47757;SHT35;22147;52.388;13.390;2024-01-06T05:03:40;0.96;93.84
47757;SHT35;22147;52.388;13.390;2024-01-06T05:06:08;1.05;93.91
47757;SHT35;22147;52.388;13.390;2024-01-06T05:08:37;0.93;93.75
47757;SHT35;22147;52.388;13.390;2024-01-06T05:11:12;0.95;93.80
47757;SHT35;22147;52.388;13.390;2024-01-06T05:13:42;1.00;93.82
47757;SHT35;22147;52.388;13.390;2024-01-06T05:16:12;0.99;93.80
47757;SHT35;22147;52.388;13.390;2024-01-06T05:18:42;0.96;93.78
47757;SHT35;22147;52.388;13.390;2024-01-06T05:21:13;0.91;93.75
47757;SHT35;22147;52.388;13.390;2024-01-06T05:23:43;0.93;93.81
47757;SHT35;22147;52.388;13.390;2024-01-06T05:26:13;1.05;93.87
47757;SHT35;22147;52.388;13.390;2024-01-06T05:28:44;1.03;93.67
47757;SHT35;22147;52.388;13.390;2024-01-06T05:31:15;0.96;93.59
47757;SHT35;22147;52.388;13.390;2024-01-06T05:33:45;0.99;93.51
47757;SHT35;22147;52.388;13.390;2024-01-06T05:36:19;0.97;93.45
47757;SHT35;22147;52.388;13.390;2024-01-06T05:38:50;0.97;93.47
47757;SHT35;22147;52.388;13.390;2024-01-06T05:41:22;1.00;93.50
47757;SHT35;22147;52.388;13.390;2024-01-06T05:43:52;0.93;93.47
47757;SHT35;22147;52.388;13.390;2024-01-06T05:46:24;0.96;93.61
47757;SHT35;22147;52.388;13.390;2024-01-06T05:48:55;0.95;93.57
47757;SHT35;22147;52.388;13.390;2024-01-06T05:51:26;0.95;93.59
47757;SHT35;22147;52.388;13.390;2024-01-06T05:53:56;0.97;93.62
47757;SHT35;22147;52.388;13.390;2024-01-06T05:56:27;0.99;93.65
47757;SHT35;22147;52.388;13.390;2024-01-06T05:58:58;0.96;93.52
47757;SHT35;22147;52.388;13.390;2024-01-06T06:01:28;0.97;93.48
47757;SHT35;22147;52.388;13.390;2024-01-06T06:03:58;0.99;93.48
47757;SHT35;22147;52.388;13.390;2024-01-06T06:06:30;1.00;93.41
47757;SHT35;22147;52.388;13.390;2024-01-06T06:09:00;1.00;93.49
47757;SHT35;22147;52.388;13.390;2024-01-06T06:11:30;0.99;93.37
47757;SHT35;22147;52.388;13.390;2024-01-06T06:14:01;1.09;93.39
47757;SHT35;22147;52.388;13.390;2024-01-06T06:16:32;1.03;93.09
47757;SHT35;22147;52.388;13.390;2024-01-06T06:19:01;1.06;93.15
47757;SHT35;22147;52.388;13.390;2024-01-06T06:21:29;1.02;93.05
47757;SHT35;22147;52.388;13.390;2024-01-06T06:23:57;0.99;93.08
47757;SHT35;22147;52.388;13.390;2024-01-06T06:26:28;1.02;93.19
47757;SHT35;22147;52.388;13.390;2024-01-06T06:28:57;1.02;93.11
47757;SHT35;22147;52.388;13.390;2024-01-06T06:31:26;1.02;93.12
47757;SHT35;22147;52.388;13.390;2024-01-06T06:33:54;0.99;93.05
47757;SHT35;22147;52.388;13.390;2024-01-06T06:36:22;0.95;93.08
47757;SHT35;22147;52.388;13.390;2024-01-06T06:38:51;0.93;93.12
47757;SHT35;22147;52.388;13.390;2024-01-06T06:41:19;0.92;93.16
47757;SHT35;22147;52.388;13.390;2024-01-06T06:43:48;0.97;93.21
47757;SHT35;22147;52.388;13.390;2024-01-06T06:46:17;0.95;93.19
47757;SHT35;22147;52.388;13.390;2024-01-06T06:48:44;0.88;93.14
47757;SHT35;22147;52.388;13.390;2024-01-06T06:51:13;1.02;93.28
47757;SHT35;22147;52.388;13.390;2024-01-06T06:53:41;0.95;93.08
47757;SHT35;22147;52.388;13.390;2024-01-06T06:56:10;0.89;93.05
47757;SHT35;22147;52.388;13.390;2024-01-06T06:58:38;0.89;92.99
47757;SHT35;22147;52.388;13.390;2024-01-06T07:01:06;0.97;93.13
47757;SHT35;22147;52.388;13.390;2024-01-06T07:03:35;0.93;92.98
47757;SHT35;22147;52.388;13.390;2024-01-06T07:06:04;0.91;92.94
47757;SHT35;22147;52.388;13.390;2024-01-06T07:08:32;0.92;92.97
47757;SHT35;22147;52.388;13.390;2024-01-06T07:11:00;0.91;93.03
47757;SHT35;22147;52.388;13.390;2024-01-06T07:13:29;0.92;93.04
47757;SHT35;22147;52.388;13.390;2024-01-06T07:15:57;0.91;93.08
47757;SHT35;22147;52.388;13.390;2024-01-06T07:18:46;0.92;93.12
47757;SHT35;22147;52.388;13.390;2024-01-06T07:21:16;0.95;93.17
47757;SHT35;22147;52.388;13.390;2024-01-06T07:23:47;0.99;92.88
47757;SHT35;22147;52.388;13.390;2024-01-06T07:26:17;0.92;92.74
47757;SHT35;22147;52.388;13.390;2024-01-06T07:28:48;0.85;92.68
47757;SHT35;22147;52.388;13.390;2024-01-06T07:31:18;0.85;92.80
47757;SHT35;22147;52.388;13.390;2024-01-06T07:33:48;0.86;92.88
47757;SHT35;22147;52.388;13.390;2024-01-06T07:36:19;0.89;92.94
47757;SHT35;22147;52.388;13.390;2024-01-06T07:38:49;0.85;92.99
47757;SHT35;22147;52.388;13.390;2024-01-06T07:41:21;0.86;92.99
47757;SHT35;22147;52.388;13.390;2024-01-06T07:43:52;0.86;93.05
47757;SHT35;22147;52.388;13.390;2024-01-06T07:46:22;0.82;92.92
47757;SHT35;22147;52.388;13.390;2024-01-06T07:48:53;0.88;93.07
47757;SHT35;22147;52.388;13.390;2024-01-06T07:51:23;0.84;92.97
47757;SHT35;22147;52.388;13.390;2024-01-06T07:53:55;0.84;93.03
47757;SHT35;22147;52.388;13.390;2024-01-06T07:56:25;0.79;92.99
47757;SHT35;22147;52.388;13.390;2024-01-06T07:58:55;0.79;93.05
47757;SHT35;22147;52.388;13.390;2024-01-06T08:01:26;0.78;93.08
47757;SHT35;22147;52.388;13.390;2024-01-06T08:03:58;0.76;93.18
47757;SHT35;22147;52.388;13.390;2024-01-06T08:06:28;0.81;93.27
47757;SHT35;22147;52.388;13.390;2024-01-06T08:08:59;0.72;93.24
47757;SHT35;22147;52.388;13.390;2024-01-06T08:11:29;0.79;93.35
47757;SHT35;22147;52.388;13.390;2024-01-06T08:13:59;0.76;93.22
47757;SHT35;22147;52.388;13.390;2024-01-06T08:16:29;0.72;93.23
47757;SHT35;22147;52.388;13.390;2024-01-06T08:19:00;0.74;93.25
47757;SHT35;22147;52.388;13.390;2024-01-06T08:21:28;0.71;93.35
47757;SHT35;22147;52.388;13.390;2024-01-06T08:23:56;0.69;93.37
47757;SHT35;22147;52.388;13.390;2024-01-06T08:26:26;0.78;93.45
47757;SHT35;22147;52.388;13.390;2024-01-06T08:28:53;0.75;93.43
47757;SHT35;22147;52.388;13.390;2024-01-06T08:31:22;0.75;93.34
47757;SHT35;22147;52.388;13.390;2024-01-06T08:33:50;0.71;93.41
47757;SHT35;22147;52.388;13.390;2024-01-06T08:36:19;0.75;93.59
47757;SHT35;22147;52.388;13.390;2024-01-06T08:38:47;0.74;93.48
47757;SHT35;22147;52.388;13.390;2024-01-06T08:41:15;0.82;93.29
47757;SHT35;22147;52.388;13.390;2024-01-06T08:43:44;0.75;93.14
47757;SHT35;22147;52.388;13.390;2024-01-06T08:46:12;0.69;93.22
47757;SHT35;22147;52.388;13.390;2024-01-06T08:48:41;0.68;93.31
47757;SHT35;22147;52.388;13.390;2024-01-06T08:51:09;0.66;93.39
47757;SHT35;22147;52.388;13.390;2024-01-06T08:53:38;0.68;93.44
47757;SHT35;22147;52.388;13.390;2024-01-06T08:56:06;0.72;93.38
47757;SHT35;22147;52.388;13.390;2024-01-06T08:58:35;0.66;93.31
47757;SHT35;22147;52.388;13.390;2024-01-06T09:01:03;0.64;93.27
47757;SHT35;22147;52.388;13.390;2024-01-06T09:03:32;0.58;93.26
47757;SHT35;22147;52.388;13.390;2024-01-06T09:06:03;0.62;93.34
47757;SHT35;22147;52.388;13.390;2024-01-06T09:08:33;0.61;93.46
47757;SHT35;22147;52.388;13.390;2024-01-06T09:11:02;0.60;93.48
47757;SHT35;22147;52.388;13.390;2024-01-06T09:13:32;0.58;93.49
47757;SHT35;22147;52.388;13.390;2024-01-06T09:16:02;0.58;93.49
47757;SHT35;22147;52.388;13.390;2024-01-06T09:18:32;0.57;93.53
47757;SHT35;22147;52.388;13.390;2024-01-06T09:21:02;0.61;93.52
47757;SHT35;22147;52.388;13.390;2024-01-06T09:23:32;0.60;93.61
47757;SHT35;22147;52.388;13.390;2024-01-06T09:26:01;0.57;93.65
47757;SHT35;22147;52.388;13.390;2024-01-06T09:28:31;0.58;93.64
47757;SHT35;22147;52.388;13.390;2024-01-06T09:31:00;0.62;93.64
47757;SHT35;22147;52.388;13.390;2024-01-06T09:33:30;0.60;93.64
47757;SHT35;22147;52.388;13.390;2024-01-06T09:36:01;0.62;93.59
47757;SHT35;22147;52.388;13.390;2024-01-06T09:38:29;0.55;93.56
47757;SHT35;22147;52.388;13.390;2024-01-06T09:40:58;0.54;93.57
47757;SHT35;22147;52.388;13.390;2024-01-06T09:43:28;0.55;93.61
47757;SHT35;22147;52.388;13.390;2024-01-06T09:46:39;0.50;93.58
47757;SHT35;22147;52.388;13.390;2024-01-06T09:49:11;0.48;93.59
47757;SHT35;22147;52.388;13.390;2024-01-06T09:51:42;0.43;93.55
47757;SHT35;22147;52.388;13.390;2024-01-06T09:54:14;0.36;93.53
47757;SHT35;22147;52.388;13.390;2024-01-06T09:56:46;0.36;93.69
47757;SHT35;22147;52.388;13.390;2024-01-06T09:59:18;0.36;93.77
47757;SHT35;22147;52.388;13.390;2024-01-06T10:01:53;0.38;93.73
47757;SHT35;22147;52.388;13.390;2024-01-06T10:04:24;0.41;93.72
47757;SHT35;22147;52.388;13.390;2024-01-06T10:06:54;0.43;93.74
47757;SHT35;22147;52.388;13.390;2024-01-06T10:09:28;0.40;93.71
47757;SHT35;22147;52.388;13.390;2024-01-06T10:11:59;0.36;93.54
47757;SHT35;22147;52.388;13.390;2024-01-06T10:14:29;0.31;93.48
47757;SHT35;22147;52.388;13.390;2024-01-06T10:17:00;0.30;93.46
47757;SHT35;22147;52.388;13.390;2024-01-06T10:19:30;0.28;93.60
47757;SHT35;22147;52.388;13.390;2024-01-06T10:22:01;0.26;93.58
47757;SHT35;22147;52.388;13.390;2024-01-06T10:24:33;0.27;93.61
47757;SHT35;22147;52.388;13.390;2024-01-06T10:27:04;0.30;93.61
47757;SHT35;22147;52.388;13.390;2024-01-06T10:29:34;0.30;93.48
47757;SHT35;22147;52.388;13.390;2024-01-06T10:32:05;0.33;93.41
47757;SHT35;22147;52.388;13.390;2024-01-06T10:34:37;0.24;93.34
47757;SHT35;22147;52.388;13.390;2024-01-06T10:37:08;0.23;93.35
47757;SHT35;22147;52.388;13.390;2024-01-06T10:39:38;0.28;93.27
47757;SHT35;22147;52.388;13.390;2024-01-06T10:42:12;0.24;93.26
47757;SHT35;22147;52.388;13.390;2024-01-06T10:44:47;0.26;93.22
47757;SHT35;22147;52.388;13.390;2024-01-06T10:47:19;0.16;93.11
47757;SHT35;22147;52.388;13.390;2024-01-06T10:49:51;0.17;93.26
47757;SHT35;22147;52.388;13.390;2024-01-06T10:52:29;0.11;93.21
47757;SHT35;22147;52.388;13.390;2024-01-06T10:54:59;0.20;93.21
47757;SHT35;22147;52.388;13.390;2024-01-06T10:57:30;0.20;93.16
47757;SHT35;22147;52.388;13.390;2024-01-06T11:00:06;0.17;93.12
47757;SHT35;22147;52.388;13.390;2024-01-06T11:02:41;0.23;93.19
47757;SHT35;22147;52.388;13.390;2024-01-06T11:05:14;0.30;93.11
47757;SHT35;22147;52.388;13.390;2024-01-06T11:07:45;0.27;92.95
47757;SHT35;22147;52.388;13.390;2024-01-06T11:10:20;0.27;92.58
47757;SHT35;22147;52.388;13.390;2024-01-06T11:13:21;0.31;92.39
47757;SHT35;22147;52.388;13.390;2024-01-06T11:15:53;0.28;92.24
47757;SHT35;22147;52.388;13.390;2024-01-06T11:18:40;0.34;92.39
47757;SHT35;22147;52.388;13.390;2024-01-06T11:21:17;0.37;92.41
47757;SHT35;22147;52.388;13.390;2024-01-06T11:26:42;0.31;92.04
47757;SHT35;22147;52.388;13.390;2024-01-06T11:29:12;0.30;92.01
47757;SHT35;22147;52.388;13.390;2024-01-06T11:31:43;0.30;92.06
47757;SHT35;22147;52.388;13.390;2024-01-06T11:34:17;0.34;92.02
47757;SHT35;22147;52.388;13.390;2024-01-06T11:36:49;0.33;91.75
47757;SHT35;22147;52.388;13.390;2024-01-06T11:39:51;0.30;91.59
47757;SHT35;22147;52.388;13.390;2024-01-06T11:42:32;0.27;91.46
47757;SHT35;22147;52.388;13.390;2024-01-06T11:45:05;0.34;91.56
47757;SHT35;22147;52.388;13.390;2024-01-06T11:47:35;0.30;91.42
47757;SHT35;22147;52.388;13.390;2024-01-06T11:50:07;0.30;91.41
47757;SHT35;22147;52.388;13.390;2024-01-06T11:52:37;0.26;91.36
47757;SHT35;22147;52.388;13.390;2024-01-06T11:55:09;0.30;91.19
47757;SHT35;22147;52.388;13.390;2024-01-06T11:57:39;0.17;90.96
47757;SHT35;22147;52.388;13.390;2024-01-06T12:00:08;0.17;91.14
47757;SHT35;22147;52.388;13.390;2024-01-06T12:02:39;0.26;91.12
47757;SHT35;22147;52.388;13.390;2024-01-06T12:05:15;0.23;90.91
47757;SHT35;22147;52.388;13.390;2024-01-06T12:08:02;0.13;90.81
47757;SHT35;22147;52.388;13.390;2024-01-06T12:10:37;0.18;90.94
47757;SHT35;22147;52.388;13.390;2024-01-06T12:13:07;0.16;90.82
47757;SHT35;22147;52.388;13.390;2024-01-06T12:15:41;0.14;90.80
47757;SHT35;22147;52.388;13.390;2024-01-06T12:18:11;0.20;90.88
47757;SHT35;22147;52.388;13.390;2024-01-06T12:20:42;0.30;90.91
47757;SHT35;22147;52.388;13.390;2024-01-06T12:23:27;0.24;90.82
47757;SHT35;22147;52.388;13.390;2024-01-06T12:26:01;0.27;90.78
47757;SHT35;22147;52.388;13.390;2024-01-06T12:28:35;0.26;90.55
47757;SHT35;22147;52.388;13.390;2024-01-06T12:31:10;0.17;90.05
47757;SHT35;22147;52.388;13.390;2024-01-06T12:33:41;0.21;90.27
47757;SHT35;22147;52.388;13.390;2024-01-06T12:36:12;0.27;90.17
47757;SHT35;22147;52.388;13.390;2024-01-06T12:38:55;0.30;89.95
47757;SHT35;22147;52.388;13.390;2024-01-06T12:41:28;0.24;89.77
47757;SHT35;22147;52.388;13.390;2024-01-06T12:43:59;0.28;89.46
47757;SHT35;22147;52.388;13.390;2024-01-06T12:46:30;0.28;89.19
47757;SHT35;22147;52.388;13.390;2024-01-06T12:49:01;0.26;89.29
47757;SHT35;22147;52.388;13.390;2024-01-06T12:51:32;0.27;89.19
47757;SHT35;22147;52.388;13.390;2024-01-06T12:54:03;0.16;89.37
47757;SHT35;22147;52.388;13.390;2024-01-06T12:56:34;0.18;89.52
47757;SHT35;22147;52.388;13.390;2024-01-06T12:59:04;0.23;89.82
47757;SHT35;22147;52.388;13.390;2024-01-06T13:01:36;0.21;89.68
47757;SHT35;22147;52.388;13.390;2024-01-06T13:04:06;0.09;89.17
47757;SHT35;22147;52.388;13.390;2024-01-06T13:06:37;0.03;89.41
47757;SHT35;22147;52.388;13.390;2024-01-06T13:09:07;0.06;89.64
47757;SHT35;22147;52.388;13.390;2024-01-06T13:11:38;-0.03;89.46
47757;SHT35;22147;52.388;13.390;2024-01-06T13:14:09;0.02;89.42
47757;SHT35;22147;52.388;13.390;2024-01-06T13:16:39;0.03;89.25
47757;SHT35;22147;52.388;13.390;2024-01-06T13:19:09;0.05;89.20
47757;SHT35;22147;52.388;13.390;2024-01-06T13:21:40;0.02;88.85
47757;SHT35;22147;52.388;13.390;2024-01-06T13:24:10;0.03;89.17
47757;SHT35;22147;52.388;13.390;2024-01-06T13:26:41;-0.01;89.06
47757;SHT35;22147;52.388;13.390;2024-01-06T13:29:10;-0.01;89.12
47757;SHT35;22147;52.388;13.390;2024-01-06T13:31:38;-0.03;88.99
47757;SHT35;22147;52.388;13.390;2024-01-06T13:34:07;-0.10;89.22
47757;SHT35;22147;52.388;13.390;2024-01-06T13:36:35;-0.10;89.42
47757;SHT35;22147;52.388;13.390;2024-01-06T13:39:04;-0.08;89.43
47757;SHT35;22147;52.388;13.390;2024-01-06T13:41:32;-0.05;89.58
47757;SHT35;22147;52.388;13.390;2024-01-06T13:44:00;-0.04;89.43
47757;SHT35;22147;52.388;13.390;2024-01-06T13:46:29;-0.01;89.20
47757;SHT35;22147;52.388;13.390;2024-01-06T13:48:57;-0.05;89.09
47757;SHT35;22147;52.388;13.390;2024-01-06T13:51:26;-0.01;89.12
47757;SHT35;22147;52.388;13.390;2024-01-06T13:53:54;0.02;89.18
47757;SHT35;22147;52.388;13.390;2024-01-06T13:56:22;0.02;88.87
47757;SHT35;22147;52.388;13.390;2024-01-06T13:58:51;0.00;88.87
47757;SHT35;22147;52.388;13.390;2024-01-06T14:01:19;-0.04;89.00
47757;SHT35;22147;52.388;13.390;2024-01-06T14:03:48;-0.07;89.23
47757;SHT35;22147;52.388;13.390;2024-01-06T14:06:16;-0.04;89.48
47757;SHT35;22147;52.388;13.390;2024-01-06T14:08:48;-0.08;89.26
47757;SHT35;22147;52.388;13.390;2024-01-06T14:11:19;-0.11;89.31
47757;SHT35;22147;52.388;13.390;2024-01-06T14:13:49;-0.01;89.25
47757;SHT35;22147;52.388;13.390;2024-01-06T14:16:21;-0.01;89.14
47757;SHT35;22147;52.388;13.390;2024-01-06T14:18:52;-0.07;89.10
47757;SHT35;22147;52.388;13.390;2024-01-06T14:21:22;-0.04;89.03
47757;SHT35;22147;52.388;13.390;2024-01-06T14:23:53;-0.08;89.09
47757;SHT35;22147;52.388;13.390;2024-01-06T14:26:23;-0.07;89.10
47757;SHT35;22147;52.388;13.390;2024-01-06T14:28:54;-0.01;88.86
47757;SHT35;22147;52.388;13.390;2024-01-06T14:31:25;-0.04;89.00
47757;SHT35;22147;52.388;13.390;2024-01-06T14:33:59;-0.04;88.95
47757;SHT35;22147;52.388;13.390;2024-01-06T14:36:30;-0.05;88.90
47757;SHT35;22147;52.388;13.390;2024-01-06T14:39:01;-0.04;88.83
47757;SHT35;22147;52.388;13.390;2024-01-06T14:41:32;-0.14;89.17
47757;SHT35;22147;52.388;13.390;2024-01-06T14:44:03;-0.08;89.06
47757;SHT35;22147;52.388;13.390;2024-01-06T14:46:33;-0.11;88.60
47757;SHT35;22147;52.388;13.390;2024-01-06T14:49:05;-0.07;88.92
47757;SHT35;22147;52.388;13.390;2024-01-06T14:51:35;-0.08;88.84
47757;SHT35;22147;52.388;13.390;2024-01-06T14:54:06;-0.07;88.70
47757;SHT35;22147;52.388;13.390;2024-01-06T14:56:42;-0.04;88.70
47757;SHT35;22147;52.388;13.390;2024-01-06T14:59:12;-0.04;88.81
47757;SHT35;22147;52.388;13.390;2024-01-06T15:01:44;-0.05;88.75
47757;SHT35;22147;52.388;13.390;2024-01-06T15:04:14;-0.05;88.71
47757;SHT35;22147;52.388;13.390;2024-01-06T15:06:45;-0.01;88.59
47757;SHT35;22147;52.388;13.390;2024-01-06T15:09:17;0.02;88.37
47757;SHT35;22147;52.388;13.390;2024-01-06T15:11:47;-0.11;88.27
47757;SHT35;22147;52.388;13.390;2024-01-06T15:14:18;-0.10;88.50
47757;SHT35;22147;52.388;13.390;2024-01-06T15:16:46;-0.14;88.66
47757;SHT35;22147;52.388;13.390;2024-01-06T15:19:14;-0.10;88.55
47757;SHT35;22147;52.388;13.390;2024-01-06T15:21:43;-0.14;88.52
47757;SHT35;22147;52.388;13.390;2024-01-06T15:24:11;-0.08;88.53
47757;SHT35;22147;52.388;13.390;2024-01-06T15:26:43;-0.03;87.98
47757;SHT35;22147;52.388;13.390;2024-01-06T15:29:11;-0.05;87.88
47757;SHT35;22147;52.388;13.390;2024-01-06T15:31:40;-0.04;87.68
47757;SHT35;22147;52.388;13.390;2024-01-06T15:34:08;-0.11;87.62
47757;SHT35;22147;52.388;13.390;2024-01-06T15:36:36;-0.07;87.82
47757;SHT35;22147;52.388;13.390;2024-01-06T15:39:05;-0.11;87.80
47757;SHT35;22147;52.388;13.390;2024-01-06T15:41:33;-0.14;88.07
47757;SHT35;22147;52.388;13.390;2024-01-06T15:44:02;-0.14;88.27
47757;SHT35;22147;52.388;13.390;2024-01-06T15:46:30;-0.12;87.85
47757;SHT35;22147;52.388;13.390;2024-01-06T15:48:59;-0.14;88.12
47757;SHT35;22147;52.388;13.390;2024-01-06T15:51:27;-0.11;87.87